Terminal Aerodrome Forecast
Issued by NWS Northern Indiana

Home | Current Version | Previous Version | Text Only | Print | Product List | Glossary On
Versions: 1 2 3 4 5 6 7 8 9 10 11 12 13 14 15 16 17 18
000
FTUS43 KIWX 242300
TAFFWA
TAF
KFWA 242327Z 2500/2524 11010KT P6SM SCT100 BKN250
     FM250400 10014KT P6SM BKN050 OVC100
     FM250700 14016KT 2SM RA BR OVC008 WS020/18055KT
     FM251200 20017KT 4SM BR VCSH BKN006 OVC015
     FM251400 24016KT P6SM OVC015
     FM251800 24015G23KT P6SM BKN035=

USA.gov is the U.S. government's official web portal to all federal, state and local government web resources and services.